sensor_id;sensor_type;location;lat;lon;timestamp;P1;durP1;ratioP1;P2;durP2;ratioP2
73120;SDS011;61307;49.628;-1.624;2024-03-02T00:02:02;4.07;;;1.45;;
73120;SDS011;61307;49.628;-1.624;2024-03-02T00:04:30;3.17;;;1.10;;
73120;SDS011;61307;49.628;-1.624;2024-03-02T00:06:57;3.85;;;1.20;;
73120;SDS011;61307;49.628;-1.624;2024-03-02T00:09:24;3.95;;;1.15;;
73120;SDS011;61307;49.628;-1.624;2024-03-02T00:11:51;3.80;;;1.17;;
73120;SDS011;61307;49.628;-1.624;2024-03-02T00:14:20;3.15;;;1.33;;
73120;SDS011;61307;49.628;-1.624;2024-03-02T00:16:49;5.78;;;1.27;;
73120;SDS011;61307;49.628;-1.624;2024-03-02T00:19:17;3.40;;;1.23;;
73120;SDS011;61307;49.628;-1.624;2024-03-02T00:21:44;3.10;;;1.10;;
73120;SDS011;61307;49.628;-1.624;2024-03-02T00:24:17;3.72;;;1.23;;
73120;SDS011;61307;49.628;-1.624;2024-03-02T00:26:47;3.72;;;1.27;;
73120;SDS011;61307;49.628;-1.624;2024-03-02T00:29:15;2.85;;;1.20;;
73120;SDS011;61307;49.628;-1.624;2024-03-02T00:31:45;3.78;;;1.33;;
73120;SDS011;61307;49.628;-1.624;2024-03-02T00:34:13;6.60;;;1.50;;
73120;SDS011;61307;49.628;-1.624;2024-03-02T00:36:41;2.88;;;1.17;;
73120;SDS011;61307;49.628;-1.624;2024-03-02T00:39:08;5.60;;;1.30;;
73120;SDS011;61307;49.628;-1.624;2024-03-02T00:41:38;3.60;;;1.05;;
73120;SDS011;61307;49.628;-1.624;2024-03-02T00:44:09;2.72;;;1.17;;
73120;SDS011;61307;49.628;-1.624;2024-03-02T00:46:38;3.67;;;1.00;;
73120;SDS011;61307;49.628;-1.624;2024-03-02T00:49:11;4.43;;;1.42;;
73120;SDS011;61307;49.628;-1.624;2024-03-02T00:51:45;4.47;;;1.15;;
73120;SDS011;61307;49.628;-1.624;2024-03-02T00:54:13;3.67;;;1.20;;
73120;SDS011;61307;49.628;-1.624;2024-03-02T00:56:41;3.25;;;1.20;;
73120;SDS011;61307;49.628;-1.624;2024-03-02T00:59:09;3.42;;;1.50;;
73120;SDS011;61307;49.628;-1.624;2024-03-02T01:01:37;2.17;;;1.20;;
73120;SDS011;61307;49.628;-1.624;2024-03-02T01:04:04;3.45;;;1.58;;
73120;SDS011;61307;49.628;-1.624;2024-03-02T01:06:32;3.50;;;1.27;;
73120;SDS011;61307;49.628;-1.624;2024-03-02T01:08:59;3.42;;;1.33;;
73120;SDS011;61307;49.628;-1.624;2024-03-02T01:11:27;3.35;;;1.48;;
73120;SDS011;61307;49.628;-1.624;2024-03-02T01:13:55;3.67;;;1.20;;
73120;SDS011;61307;49.628;-1.624;2024-03-02T01:16:22;3.72;;;1.48;;
73120;SDS011;61307;49.628;-1.624;2024-03-02T01:18:49;3.25;;;1.08;;
73120;SDS011;61307;49.628;-1.624;2024-03-02T01:21:16;3.17;;;1.17;;
73120;SDS011;61307;49.628;-1.624;2024-03-02T01:23:44;3.95;;;1.33;;
73120;SDS011;61307;49.628;-1.624;2024-03-02T01:26:11;2.83;;;1.02;;
73120;SDS011;61307;49.628;-1.624;2024-03-02T01:28:38;3.35;;;1.20;;
73120;SDS011;61307;49.628;-1.624;2024-03-02T01:31:05;4.18;;;1.25;;
73120;SDS011;61307;49.628;-1.624;2024-03-02T01:33:32;6.32;;;1.10;;
73120;SDS011;61307;49.628;-1.624;2024-03-02T01:35:59;4.72;;;1.35;;
73120;SDS011;61307;49.628;-1.624;2024-03-02T01:38:26;3.65;;;1.15;;
73120;SDS011;61307;49.628;-1.624;2024-03-02T01:40:55;2.95;;;1.20;;
73120;SDS011;61307;49.628;-1.624;2024-03-02T01:43:22;3.10;;;1.15;;
73120;SDS011;61307;49.628;-1.624;2024-03-02T01:45:49;3.08;;;1.20;;
73120;SDS011;61307;49.628;-1.624;2024-03-02T01:48:16;3.53;;;1.30;;
73120;SDS011;61307;49.628;-1.624;2024-03-02T01:50:43;3.67;;;1.30;;
73120;SDS011;61307;49.628;-1.624;2024-03-02T01:53:10;3.70;;;1.10;;
73120;SDS011;61307;49.628;-1.624;2024-03-02T01:55:36;4.88;;;1.20;;
73120;SDS011;61307;49.628;-1.624;2024-03-02T01:58:05;2.60;;;1.20;;
73120;SDS011;61307;49.628;-1.624;2024-03-02T02:00:32;3.28;;;1.10;;
73120;SDS011;61307;49.628;-1.624;2024-03-02T02:02:59;3.33;;;1.00;;
73120;SDS011;61307;49.628;-1.624;2024-03-02T02:05:26;4.82;;;1.20;;
73120;SDS011;61307;49.628;-1.624;2024-03-02T02:07:53;2.90;;;1.10;;
73120;SDS011;61307;49.628;-1.624;2024-03-02T02:10:20;2.00;;;0.95;;
73120;SDS011;61307;49.628;-1.624;2024-03-02T02:12:47;4.40;;;1.10;;
73120;SDS011;61307;49.628;-1.624;2024-03-02T02:15:25;5.55;;;1.15;;
73120;SDS011;61307;49.628;-1.624;2024-03-02T02:17:53;3.40;;;1.20;;
73120;SDS011;61307;49.628;-1.624;2024-03-02T02:20:20;4.28;;;1.20;;
73120;SDS011;61307;49.628;-1.624;2024-03-02T02:22:57;6.28;;;1.40;;
73120;SDS011;61307;49.628;-1.624;2024-03-02T02:25:25;3.15;;;1.20;;
73120;SDS011;61307;49.628;-1.624;2024-03-02T02:27:52;4.65;;;1.05;;
73120;SDS011;61307;49.628;-1.624;2024-03-02T02:30:20;3.00;;;1.30;;
73120;SDS011;61307;49.628;-1.624;2024-03-02T02:32:48;3.30;;;1.10;;
73120;SDS011;61307;49.628;-1.624;2024-03-02T02:35:15;3.00;;;1.05;;
73120;SDS011;61307;49.628;-1.624;2024-03-02T02:37:42;2.65;;;1.08;;
73120;SDS011;61307;49.628;-1.624;2024-03-02T02:40:11;4.40;;;1.38;;
73120;SDS011;61307;49.628;-1.624;2024-03-02T02:42:39;3.25;;;1.00;;
73120;SDS011;61307;49.628;-1.624;2024-03-02T02:45:06;4.82;;;1.40;;
73120;SDS011;61307;49.628;-1.624;2024-03-02T02:47:33;4.20;;;1.15;;
73120;SDS011;61307;49.628;-1.624;2024-03-02T02:50:01;4.43;;;1.20;;
73120;SDS011;61307;49.628;-1.624;2024-03-02T02:52:32;3.28;;;1.48;;
73120;SDS011;61307;49.628;-1.624;2024-03-02T02:55:02;3.08;;;1.27;;
73120;SDS011;61307;49.628;-1.624;2024-03-02T02:57:31;4.05;;;1.20;;
73120;SDS011;61307;49.628;-1.624;2024-03-02T03:00:01;3.00;;;1.27;;
73120;SDS011;61307;49.628;-1.624;2024-03-02T03:02:35;4.55;;;1.20;;
73120;SDS011;61307;49.628;-1.624;2024-03-02T03:05:03;2.78;;;1.10;;
73120;SDS011;61307;49.628;-1.624;2024-03-02T03:07:31;4.28;;;0.95;;
73120;SDS011;61307;49.628;-1.624;2024-03-02T03:09:58;4.20;;;1.15;;
73120;SDS011;61307;49.628;-1.624;2024-03-02T03:12:26;3.15;;;1.23;;
73120;SDS011;61307;49.628;-1.624;2024-03-02T03:14:54;5.43;;;1.27;;
73120;SDS011;61307;49.628;-1.624;2024-03-02T03:17:21;3.72;;;1.15;;
73120;SDS011;61307;49.628;-1.624;2024-03-02T03:19:48;2.50;;;1.13;;
73120;SDS011;61307;49.628;-1.624;2024-03-02T03:22:15;4.63;;;1.58;;
73120;SDS011;61307;49.628;-1.624;2024-03-02T03:24:42;3.97;;;1.20;;
73120;SDS011;61307;49.628;-1.624;2024-03-02T03:27:09;1.92;;;1.05;;
73120;SDS011;61307;49.628;-1.624;2024-03-02T03:29:36;4.30;;;1.65;;
73120;SDS011;61307;49.628;-1.624;2024-03-02T03:32:05;4.70;;;1.50;;
73120;SDS011;61307;49.628;-1.624;2024-03-02T03:34:33;3.75;;;1.20;;
73120;SDS011;61307;49.628;-1.624;2024-03-02T03:37:00;4.57;;;1.48;;
73120;SDS011;61307;49.628;-1.624;2024-03-02T03:39:27;3.90;;;1.20;;
73120;SDS011;61307;49.628;-1.624;2024-03-02T03:41:54;4.90;;;1.42;;
73120;SDS011;61307;49.628;-1.624;2024-03-02T03:44:21;3.45;;;1.20;;
73120;SDS011;61307;49.628;-1.624;2024-03-02T03:46:48;4.82;;;1.10;;
73120;SDS011;61307;49.628;-1.624;2024-03-02T03:49:16;3.15;;;1.02;;
73120;SDS011;61307;49.628;-1.624;2024-03-02T03:51:43;3.58;;;1.05;;
73120;SDS011;61307;49.628;-1.624;2024-03-02T03:54:10;4.22;;;1.50;;
73120;SDS011;61307;49.628;-1.624;2024-03-02T03:56:37;3.08;;;1.15;;
73120;SDS011;61307;49.628;-1.624;2024-03-02T03:59:04;3.28;;;1.20;;
73120;SDS011;61307;49.628;-1.624;2024-03-02T04:01:31;3.47;;;1.42;;
73120;SDS011;61307;49.628;-1.624;2024-03-02T04:03:58;4.72;;;1.50;;
73120;SDS011;61307;49.628;-1.624;2024-03-02T04:06:28;3.20;;;1.13;;
73120;SDS011;61307;49.628;-1.624;2024-03-02T04:08:55;3.03;;;1.10;;
73120;SDS011;61307;49.628;-1.624;2024-03-02T04:11:22;3.53;;;1.10;;
73120;SDS011;61307;49.628;-1.624;2024-03-02T04:13:49;3.17;;;1.10;;
73120;SDS011;61307;49.628;-1.624;2024-03-02T04:16:16;3.13;;;0.98;;
73120;SDS011;61307;49.628;-1.624;2024-03-02T04:18:43;3.60;;;1.58;;
73120;SDS011;61307;49.628;-1.624;2024-03-02T04:21:09;3.58;;;1.02;;
73120;SDS011;61307;49.628;-1.624;2024-03-02T04:23:38;3.17;;;1.17;;
73120;SDS011;61307;49.628;-1.624;2024-03-02T04:26:05;3.40;;;1.25;;
73120;SDS011;61307;49.628;-1.624;2024-03-02T04:28:32;4.43;;;1.35;;
73120;SDS011;61307;49.628;-1.624;2024-03-02T04:30:59;2.67;;;1.15;;
73120;SDS011;61307;49.628;-1.624;2024-03-02T04:33:26;4.70;;;1.15;;
73120;SDS011;61307;49.628;-1.624;2024-03-02T04:35:52;3.72;;;1.00;;
73120;SDS011;61307;49.628;-1.624;2024-03-02T04:38:19;4.93;;;1.25;;
73120;SDS011;61307;49.628;-1.624;2024-03-02T04:40:47;4.25;;;1.00;;
73120;SDS011;61307;49.628;-1.624;2024-03-02T04:43:14;2.80;;;1.10;;
73120;SDS011;61307;49.628;-1.624;2024-03-02T04:45:41;3.85;;;1.33;;
73120;SDS011;61307;49.628;-1.624;2024-03-02T04:48:09;4.28;;;1.13;;
73120;SDS011;61307;49.628;-1.624;2024-03-02T04:50:36;4.30;;;1.38;;
73120;SDS011;61307;49.628;-1.624;2024-03-02T04:53:03;4.10;;;1.23;;
73120;SDS011;61307;49.628;-1.624;2024-03-02T04:55:30;5.10;;;1.30;;
73120;SDS011;61307;49.628;-1.624;2024-03-02T04:58:24;5.20;;;1.42;;
73120;SDS011;61307;49.628;-1.624;2024-03-02T05:00:51;5.13;;;1.40;;
73120;SDS011;61307;49.628;-1.624;2024-03-02T05:03:18;2.30;;;1.33;;
73120;SDS011;61307;49.628;-1.624;2024-03-02T05:05:45;3.42;;;1.55;;
73120;SDS011;61307;49.628;-1.624;2024-03-02T05:08:12;4.85;;;1.35;;
73120;SDS011;61307;49.628;-1.624;2024-03-02T05:10:41;2.67;;;1.02;;
73120;SDS011;61307;49.628;-1.624;2024-03-02T05:13:08;3.05;;;1.08;;
73120;SDS011;61307;49.628;-1.624;2024-03-02T05:15:36;4.25;;;1.27;;
73120;SDS011;61307;49.628;-1.624;2024-03-02T05:18:03;2.92;;;1.02;;
73120;SDS011;61307;49.628;-1.624;2024-03-02T05:20:31;5.00;;;1.42;;
73120;SDS011;61307;49.628;-1.624;2024-03-02T05:22:58;3.15;;;1.20;;
73120;SDS011;61307;49.628;-1.624;2024-03-02T05:25:25;2.85;;;1.17;;
73120;SDS011;61307;49.628;-1.624;2024-03-02T05:27:52;4.07;;;1.13;;
73120;SDS011;61307;49.628;-1.624;2024-03-02T05:30:19;2.85;;;1.00;;
73120;SDS011;61307;49.628;-1.624;2024-03-02T05:32:47;4.80;;;1.55;;
73120;SDS011;61307;49.628;-1.624;2024-03-02T05:35:14;5.20;;;1.33;;
73120;SDS011;61307;49.628;-1.624;2024-03-02T05:37:41;3.83;;;1.40;;
73120;SDS011;61307;49.628;-1.624;2024-03-02T05:40:08;3.83;;;1.45;;
73120;SDS011;61307;49.628;-1.624;2024-03-02T05:42:36;2.50;;;1.02;;
73120;SDS011;61307;49.628;-1.624;2024-03-02T05:45:03;3.40;;;1.25;;
73120;SDS011;61307;49.628;-1.624;2024-03-02T05:47:31;2.60;;;1.08;;
73120;SDS011;61307;49.628;-1.624;2024-03-02T05:50:00;3.28;;;1.17;;
73120;SDS011;61307;49.628;-1.624;2024-03-02T05:52:29;2.47;;;1.00;;
73120;SDS011;61307;49.628;-1.624;2024-03-02T05:54:55;3.95;;;1.25;;
73120;SDS011;61307;49.628;-1.624;2024-03-02T05:57:22;3.53;;;1.45;;
73120;SDS011;61307;49.628;-1.624;2024-03-02T06:00:10;2.35;;;0.95;;
73120;SDS011;61307;49.628;-1.624;2024-03-02T06:02:39;2.58;;;1.17;;
73120;SDS011;61307;49.628;-1.624;2024-03-02T06:05:07;2.70;;;0.80;;
73120;SDS011;61307;49.628;-1.624;2024-03-02T06:07:35;3.63;;;1.20;;
73120;SDS011;61307;49.628;-1.624;2024-03-02T06:10:02;5.20;;;1.10;;
73120;SDS011;61307;49.628;-1.624;2024-03-02T06:12:30;3.25;;;1.00;;
73120;SDS011;61307;49.628;-1.624;2024-03-02T06:14:57;2.08;;;0.90;;
73120;SDS011;61307;49.628;-1.624;2024-03-02T06:17:24;2.67;;;1.08;;
73120;SDS011;61307;49.628;-1.624;2024-03-02T06:19:51;2.78;;;0.85;;
73120;SDS011;61307;49.628;-1.624;2024-03-02T06:22:19;3.30;;;1.00;;
73120;SDS011;61307;49.628;-1.624;2024-03-02T06:24:48;2.70;;;0.90;;
73120;SDS011;61307;49.628;-1.624;2024-03-02T06:27:15;2.00;;;0.90;;
73120;SDS011;61307;49.628;-1.624;2024-03-02T06:29:41;3.03;;;0.93;;
73120;SDS011;61307;49.628;-1.624;2024-03-02T06:32:08;2.75;;;0.93;;
73120;SDS011;61307;49.628;-1.624;2024-03-02T06:34:35;5.03;;;1.15;;
73120;SDS011;61307;49.628;-1.624;2024-03-02T06:37:01;2.92;;;1.15;;
73120;SDS011;61307;49.628;-1.624;2024-03-02T06:39:29;3.85;;;1.00;;
73120;SDS011;61307;49.628;-1.624;2024-03-02T06:41:59;3.63;;;1.00;;
73120;SDS011;61307;49.628;-1.624;2024-03-02T06:44:26;1.70;;;0.98;;
73120;SDS011;61307;49.628;-1.624;2024-03-02T06:46:53;4.72;;;1.30;;
73120;SDS011;61307;49.628;-1.624;2024-03-02T06:49:20;2.45;;;1.05;;
73120;SDS011;61307;49.628;-1.624;2024-03-02T06:51:47;2.88;;;0.93;;
73120;SDS011;61307;49.628;-1.624;2024-03-02T06:54:15;2.78;;;0.93;;
73120;SDS011;61307;49.628;-1.624;2024-03-02T06:56:43;4.53;;;1.20;;
73120;SDS011;61307;49.628;-1.624;2024-03-02T06:59:10;2.45;;;1.00;;
73120;SDS011;61307;49.628;-1.624;2024-03-02T07:01:37;3.67;;;1.10;;
73120;SDS011;61307;49.628;-1.624;2024-03-02T07:04:03;4.20;;;1.40;;
73120;SDS011;61307;49.628;-1.624;2024-03-02T07:06:31;2.30;;;0.95;;
73120;SDS011;61307;49.628;-1.624;2024-03-02T07:08:58;3.70;;;1.00;;
73120;SDS011;61307;49.628;-1.624;2024-03-02T07:11:25;4.88;;;1.10;;
73120;SDS011;61307;49.628;-1.624;2024-03-02T07:13:53;3.05;;;1.10;;
73120;SDS011;61307;49.628;-1.624;2024-03-02T07:16:20;3.70;;;1.20;;
73120;SDS011;61307;49.628;-1.624;2024-03-02T07:18:53;4.65;;;1.10;;
73120;SDS011;61307;49.628;-1.624;2024-03-02T07:21:21;4.32;;;1.10;;
73120;SDS011;61307;49.628;-1.624;2024-03-02T07:23:49;4.90;;;1.60;;
73120;SDS011;61307;49.628;-1.624;2024-03-02T07:26:16;2.53;;;1.02;;
73120;SDS011;61307;49.628;-1.624;2024-03-02T07:28:44;2.72;;;1.15;;
73120;SDS011;61307;49.628;-1.624;2024-03-02T07:31:14;2.97;;;1.35;;
73120;SDS011;61307;49.628;-1.624;2024-03-02T07:33:43;2.55;;;1.25;;
73120;SDS011;61307;49.628;-1.624;2024-03-02T07:36:10;2.45;;;0.70;;
73120;SDS011;61307;49.628;-1.624;2024-03-02T07:38:37;2.70;;;1.02;;
73120;SDS011;61307;49.628;-1.624;2024-03-02T07:41:06;1.60;;;0.75;;
73120;SDS011;61307;49.628;-1.624;2024-03-02T07:43:33;2.28;;;0.90;;
73120;SDS011;61307;49.628;-1.624;2024-03-02T07:46:00;3.17;;;1.17;;
73120;SDS011;61307;49.628;-1.624;2024-03-02T07:48:30;3.13;;;1.10;;
73120;SDS011;61307;49.628;-1.624;2024-03-02T07:50:57;3.35;;;1.10;;
73120;SDS011;61307;49.628;-1.624;2024-03-02T07:53:24;1.92;;;1.00;;
73120;SDS011;61307;49.628;-1.624;2024-03-02T07:55:51;2.28;;;1.00;;
73120;SDS011;61307;49.628;-1.624;2024-03-02T07:58:18;4.05;;;0.90;;
73120;SDS011;61307;49.628;-1.624;2024-03-02T08:00:45;2.65;;;1.20;;
73120;SDS011;61307;49.628;-1.624;2024-03-02T08:03:13;1.58;;;0.98;;
73120;SDS011;61307;49.628;-1.624;2024-03-02T08:05:41;2.53;;;1.30;;
73120;SDS011;61307;49.628;-1.624;2024-03-02T08:08:08;2.65;;;1.27;;
73120;SDS011;61307;49.628;-1.624;2024-03-02T08:10:37;1.85;;;0.95;;
73120;SDS011;61307;49.628;-1.624;2024-03-02T08:13:03;1.55;;;0.90;;
73120;SDS011;61307;49.628;-1.624;2024-03-02T08:15:30;2.60;;;1.08;;
73120;SDS011;61307;49.628;-1.624;2024-03-02T08:17:57;1.55;;;0.85;;
73120;SDS011;61307;49.628;-1.624;2024-03-02T08:20:24;2.10;;;1.00;;
73120;SDS011;61307;49.628;-1.624;2024-03-02T08:22:53;2.03;;;0.98;;
73120;SDS011;61307;49.628;-1.624;2024-03-02T08:25:20;3.05;;;1.02;;
73120;SDS011;61307;49.628;-1.624;2024-03-02T08:27:47;1.40;;;0.80;;
73120;SDS011;61307;49.628;-1.624;2024-03-02T08:30:14;0.95;;;0.80;;
73120;SDS011;61307;49.628;-1.624;2024-03-02T08:32:43;1.77;;;0.90;;
73120;SDS011;61307;49.628;-1.624;2024-03-02T08:35:10;1.55;;;0.85;;
73120;SDS011;61307;49.628;-1.624;2024-03-02T08:37:37;1.90;;;0.65;;
73120;SDS011;61307;49.628;-1.624;2024-03-02T08:40:09;1.02;;;0.70;;
73120;SDS011;61307;49.628;-1.624;2024-03-02T08:42:36;2.60;;;0.95;;
73120;SDS011;61307;49.628;-1.624;2024-03-02T08:45:03;1.17;;;0.70;;
73120;SDS011;61307;49.628;-1.624;2024-03-02T08:47:31;2.20;;;0.80;;
73120;SDS011;61307;49.628;-1.624;2024-03-02T08:49:59;1.25;;;0.73;;
73120;SDS011;61307;49.628;-1.624;2024-03-02T08:52:26;1.10;;;0.80;;
73120;SDS011;61307;49.628;-1.624;2024-03-02T08:54:53;1.30;;;0.80;;
73120;SDS011;61307;49.628;-1.624;2024-03-02T08:57:21;1.70;;;0.90;;
73120;SDS011;61307;49.628;-1.624;2024-03-02T08:59:48;0.52;;;0.52;;
73120;SDS011;61307;49.628;-1.624;2024-03-02T09:02:15;1.17;;;0.70;;
73120;SDS011;61307;49.628;-1.624;2024-03-02T09:04:42;1.08;;;0.70;;
73120;SDS011;61307;49.628;-1.624;2024-03-02T09:07:09;0.70;;;0.70;;
73120;SDS011;61307;49.628;-1.624;2024-03-02T09:09:36;1.83;;;0.75;;
73120;SDS011;61307;49.628;-1.624;2024-03-02T09:12:04;1.42;;;0.70;;
73120;SDS011;61307;49.628;-1.624;2024-03-02T09:14:33;2.40;;;0.75;;
73120;SDS011;61307;49.628;-1.624;2024-03-02T09:17:01;1.65;;;0.80;;
73120;SDS011;61307;49.628;-1.624;2024-03-02T09:19:28;1.98;;;0.82;;
73120;SDS011;61307;49.628;-1.624;2024-03-02T09:21:55;2.45;;;0.80;;
73120;SDS011;61307;49.628;-1.624;2024-03-02T09:24:24;1.35;;;0.82;;
73120;SDS011;61307;49.628;-1.624;2024-03-02T09:26:50;2.03;;;0.93;;
73120;SDS011;61307;49.628;-1.624;2024-03-02T09:29:17;1.60;;;0.90;;
73120;SDS011;61307;49.628;-1.624;2024-03-02T09:31:47;0.88;;;0.80;;
73120;SDS011;61307;49.628;-1.624;2024-03-02T09:34:14;1.95;;;0.80;;
73120;SDS011;61307;49.628;-1.624;2024-03-02T09:36:41;2.20;;;1.00;;
73120;SDS011;61307;49.628;-1.624;2024-03-02T09:39:08;1.88;;;0.85;;
73120;SDS011;61307;49.628;-1.624;2024-03-02T09:41:36;1.38;;;0.98;;
73120;SDS011;61307;49.628;-1.624;2024-03-02T09:44:03;2.47;;;1.00;;
73120;SDS011;61307;49.628;-1.624;2024-03-02T09:46:31;2.05;;;1.10;;
73120;SDS011;61307;49.628;-1.624;2024-03-02T09:48:59;2.10;;;1.10;;
73120;SDS011;61307;49.628;-1.624;2024-03-02T09:51:26;1.13;;;0.80;;
73120;SDS011;61307;49.628;-1.624;2024-03-02T09:53:54;2.65;;;0.80;;
73120;SDS011;61307;49.628;-1.624;2024-03-02T09:56:21;1.00;;;0.80;;
73120;SDS011;61307;49.628;-1.624;2024-03-02T09:58:48;0.93;;;0.77;;
73120;SDS011;61307;49.628;-1.624;2024-03-02T10:01:15;2.17;;;1.20;;
73120;SDS011;61307;49.628;-1.624;2024-03-02T10:03:43;2.05;;;0.90;;
73120;SDS011;61307;49.628;-1.624;2024-03-02T10:06:20;2.22;;;0.95;;
73120;SDS011;61307;49.628;-1.624;2024-03-02T10:08:47;1.00;;;0.90;;
73120;SDS011;61307;49.628;-1.624;2024-03-02T10:14:04;2.00;;;1.05;;
73120;SDS011;61307;49.628;-1.624;2024-03-02T10:16:33;1.60;;;0.90;;
73120;SDS011;61307;49.628;-1.624;2024-03-02T10:19:17;1.77;;;0.70;;
73120;SDS011;61307;49.628;-1.624;2024-03-02T10:21:47;1.30;;;0.88;;
73120;SDS011;61307;49.628;-1.624;2024-03-02T10:24:15;1.10;;;0.80;;
73120;SDS011;61307;49.628;-1.624;2024-03-02T10:26:42;1.77;;;0.98;;
73120;SDS011;61307;49.628;-1.624;2024-03-02T10:29:09;1.60;;;0.80;;
73120;SDS011;61307;49.628;-1.624;2024-03-02T10:31:39;1.85;;;0.77;;
73120;SDS011;61307;49.628;-1.624;2024-03-02T10:34:07;1.52;;;0.85;;
73120;SDS011;61307;49.628;-1.624;2024-03-02T10:36:35;1.63;;;0.80;;
73120;SDS011;61307;49.628;-1.624;2024-03-02T10:39:04;1.52;;;0.75;;
73120;SDS011;61307;49.628;-1.624;2024-03-02T10:41:32;1.58;;;0.70;;
73120;SDS011;61307;49.628;-1.624;2024-03-02T10:44:01;0.93;;;0.70;;
73120;SDS011;61307;49.628;-1.624;2024-03-02T10:46:30;1.40;;;0.90;;
73120;SDS011;61307;49.628;-1.624;2024-03-02T10:48:57;2.33;;;0.80;;
73120;SDS011;61307;49.628;-1.624;2024-03-02T10:51:25;1.10;;;0.77;;
73120;SDS011;61307;49.628;-1.624;2024-03-02T10:53:56;1.40;;;0.80;;
73120;SDS011;61307;49.628;-1.624;2024-03-02T10:56:27;1.00;;;0.80;;
73120;SDS011;61307;49.628;-1.624;2024-03-02T10:58:55;1.55;;;0.98;;
73120;SDS011;61307;49.628;-1.624;2024-03-02T11:01:29;2.05;;;0.90;;
73120;SDS011;61307;49.628;-1.624;2024-03-02T11:03:58;1.08;;;0.70;;
73120;SDS011;61307;49.628;-1.624;2024-03-02T11:06:26;1.30;;;0.80;;
73120;SDS011;61307;49.628;-1.624;2024-03-02T11:08:57;1.77;;;0.80;;
73120;SDS011;61307;49.628;-1.624;2024-03-02T11:11:30;1.13;;;0.70;;
73120;SDS011;61307;49.628;-1.624;2024-03-02T11:14:02;1.30;;;0.55;;
73120;SDS011;61307;49.628;-1.624;2024-03-02T11:16:34;1.35;;;0.60;;
73120;SDS011;61307;49.628;-1.624;2024-03-02T11:19:04;3.00;;;1.00;;
73120;SDS011;61307;49.628;-1.624;2024-03-02T11:21:32;1.20;;;0.68;;
73120;SDS011;61307;49.628;-1.624;2024-03-02T11:24:00;0.85;;;0.50;;
73120;SDS011;61307;49.628;-1.624;2024-03-02T11:27:02;1.02;;;0.77;;
73120;SDS011;61307;49.628;-1.624;2024-03-02T11:29:45;1.42;;;0.73;;
73120;SDS011;61307;49.628;-1.624;2024-03-02T11:32:13;2.33;;;0.80;;
73120;SDS011;61307;49.628;-1.624;2024-03-02T11:34:44;1.05;;;0.70;;
73120;SDS011;61307;49.628;-1.624;2024-03-02T11:37:13;1.42;;;0.77;;
73120;SDS011;61307;49.628;-1.624;2024-03-02T11:39:40;2.05;;;0.75;;
73120;SDS011;61307;49.628;-1.624;2024-03-02T11:42:09;1.75;;;1.00;;
73120;SDS011;61307;49.628;-1.624;2024-03-02T11:44:39;0.88;;;0.65;;
73120;SDS011;61307;49.628;-1.624;2024-03-02T11:47:08;0.68;;;0.60;;
73120;SDS011;61307;49.628;-1.624;2024-03-02T11:49:37;2.67;;;0.70;;
73120;SDS011;61307;49.628;-1.624;2024-03-02T11:52:05;1.35;;;0.70;;
73120;SDS011;61307;49.628;-1.624;2024-03-02T11:54:33;1.05;;;0.65;;
73120;SDS011;61307;49.628;-1.624;2024-03-02T11:57:01;1.40;;;0.90;;
73120;SDS011;61307;49.628;-1.624;2024-03-02T11:59:30;1.52;;;0.70;;
73120;SDS011;61307;49.628;-1.624;2024-03-02T12:01:57;2.83;;;0.80;;
73120;SDS011;61307;49.628;-1.624;2024-03-02T12:04:25;1.58;;;0.70;;
73120;SDS011;61307;49.628;-1.624;2024-03-02T12:06:55;1.92;;;0.75;;
73120;SDS011;61307;49.628;-1.624;2024-03-02T12:09:24;2.92;;;1.10;;
73120;SDS011;61307;49.628;-1.624;2024-03-02T12:12:01;1.63;;;0.60;;
73120;SDS011;61307;49.628;-1.624;2024-03-02T12:14:31;2.58;;;0.80;;
73120;SDS011;61307;49.628;-1.624;2024-03-02T12:16:59;1.77;;;0.55;;
73120;SDS011;61307;49.628;-1.624;2024-03-02T12:19:26;1.30;;;0.70;;
73120;SDS011;61307;49.628;-1.624;2024-03-02T12:21:55;2.17;;;0.70;;
73120;SDS011;61307;49.628;-1.624;2024-03-02T12:24:23;0.85;;;0.65;;
73120;SDS011;61307;49.628;-1.624;2024-03-02T12:26:50;1.52;;;0.85;;
73120;SDS011;61307;49.628;-1.624;2024-03-02T12:29:18;1.75;;;0.60;;
73120;SDS011;61307;49.628;-1.624;2024-03-02T12:31:48;0.98;;;0.80;;
73120;SDS011;61307;49.628;-1.624;2024-03-02T12:34:17;1.65;;;0.75;;
73120;SDS011;61307;49.628;-1.624;2024-03-02T12:36:45;1.27;;;0.60;;
73120;SDS011;61307;49.628;-1.624;2024-03-02T12:39:14;1.42;;;0.70;;
73120;SDS011;61307;49.628;-1.624;2024-03-02T12:41:42;0.90;;;0.75;;
73120;SDS011;61307;49.628;-1.624;2024-03-02T12:44:09;0.98;;;0.50;;
73120;SDS011;61307;49.628;-1.624;2024-03-02T12:46:36;1.33;;;0.70;;
73120;SDS011;61307;49.628;-1.624;2024-03-02T12:49:08;2.97;;;0.77;;
73120;SDS011;61307;49.628;-1.624;2024-03-02T12:51:37;1.83;;;0.85;;
73120;SDS011;61307;49.628;-1.624;2024-03-02T12:54:05;1.95;;;0.60;;
73120;SDS011;61307;49.628;-1.624;2024-03-02T12:56:32;1.33;;;0.90;;
73120;SDS011;61307;49.628;-1.624;2024-03-02T12:58:59;1.00;;;0.63;;
73120;SDS011;61307;49.628;-1.624;2024-03-02T13:01:26;1.48;;;0.70;;
73120;SDS011;61307;49.628;-1.624;2024-03-02T13:03:54;1.27;;;0.73;;
73120;SDS011;61307;49.628;-1.624;2024-03-02T13:06:24;1.85;;;0.88;;
73120;SDS011;61307;49.628;-1.624;2024-03-02T13:08:53;1.48;;;0.80;;
73120;SDS011;61307;49.628;-1.624;2024-03-02T13:11:20;1.65;;;0.70;;
73120;SDS011;61307;49.628;-1.624;2024-03-02T13:13:48;1.67;;;0.70;;
73120;SDS011;61307;49.628;-1.624;2024-03-02T13:16:15;1.40;;;0.70;;
73120;SDS011;61307;49.628;-1.624;2024-03-02T13:18:44;1.60;;;0.70;;
73120;SDS011;61307;49.628;-1.624;2024-03-02T13:21:11;1.92;;;0.80;;
73120;SDS011;61307;49.628;-1.624;2024-03-02T13:23:39;2.00;;;1.23;;
73120;SDS011;61307;49.628;-1.624;2024-03-02T13:26:06;2.97;;;0.80;;
73120;SDS011;61307;49.628;-1.624;2024-03-02T13:28:36;2.63;;;0.80;;
73120;SDS011;61307;49.628;-1.624;2024-03-02T13:31:04;2.13;;;1.00;;
73120;SDS011;61307;49.628;-1.624;2024-03-02T13:33:31;2.88;;;0.80;;
73120;SDS011;61307;49.628;-1.624;2024-03-02T13:35:58;1.17;;;0.70;;
73120;SDS011;61307;49.628;-1.624;2024-03-02T13:38:26;2.08;;;0.75;;
73120;SDS011;61307;49.628;-1.624;2024-03-02T13:40:55;3.28;;;0.80;;
73120;SDS011;61307;49.628;-1.624;2024-03-02T13:43:22;1.00;;;0.60;;
73120;SDS011;61307;49.628;-1.624;2024-03-02T13:45:49;1.85;;;0.68;;
73120;SDS011;61307;49.628;-1.624;2024-03-02T13:48:17;0.98;;;0.60;;
73120;SDS011;61307;49.628;-1.624;2024-03-02T13:50:44;1.98;;;0.85;;
73120;SDS011;61307;49.628;-1.624;2024-03-02T13:53:11;1.70;;;0.70;;
73120;SDS011;61307;49.628;-1.624;2024-03-02T13:55:38;2.03;;;0.70;;
73120;SDS011;61307;49.628;-1.624;2024-03-02T13:58:08;2.83;;;1.00;;
73120;SDS011;61307;49.628;-1.624;2024-03-02T14:00:36;1.05;;;0.80;;
73120;SDS011;61307;49.628;-1.624;2024-03-02T14:03:04;1.60;;;0.70;;
73120;SDS011;61307;49.628;-1.624;2024-03-02T14:05:32;3.17;;;0.70;;
73120;SDS011;61307;49.628;-1.624;2024-03-02T14:07:59;0.82;;;0.60;;
73120;SDS011;61307;49.628;-1.624;2024-03-02T14:10:26;1.95;;;0.90;;
73120;SDS011;61307;49.628;-1.624;2024-03-02T14:12:54;2.58;;;0.90;;
73120;SDS011;61307;49.628;-1.624;2024-03-02T14:15:22;1.27;;;0.70;;
73120;SDS011;61307;49.628;-1.624;2024-03-02T14:17:50;1.02;;;0.68;;
73120;SDS011;61307;49.628;-1.624;2024-03-02T14:20:17;1.23;;;0.80;;
73120;SDS011;61307;49.628;-1.624;2024-03-02T14:22:47;0.70;;;0.57;;
73120;SDS011;61307;49.628;-1.624;2024-03-02T14:25:15;2.08;;;0.90;;
73120;SDS011;61307;49.628;-1.624;2024-03-02T14:27:43;1.98;;;0.85;;
73120;SDS011;61307;49.628;-1.624;2024-03-02T14:30:10;0.82;;;0.50;;
73120;SDS011;61307;49.628;-1.624;2024-03-02T14:32:40;2.55;;;0.80;;
73120;SDS011;61307;49.628;-1.624;2024-03-02T14:35:07;0.95;;;0.70;;
73120;SDS011;61307;49.628;-1.624;2024-03-02T14:37:36;0.85;;;0.55;;
73120;SDS011;61307;49.628;-1.624;2024-03-02T14:40:04;1.35;;;0.75;;
73120;SDS011;61307;49.628;-1.624;2024-03-02T14:42:34;0.93;;;0.70;;